sensor_id;sensor_type;location;lat;lon;timestamp;temperature;humidity
22161;DHT22;49035;48.812;11.762;2023-07-30T00:02:03;16.60;99.90
22161;DHT22;49035;48.812;11.762;2023-07-30T00:04:28;16.70;99.90
22161;DHT22;49035;48.812;11.762;2023-07-30T00:06:54;16.70;99.90
22161;DHT22;49035;48.812;11.762;2023-07-30T00:09:19;16.60;99.90
22161;DHT22;49035;48.812;11.762;2023-07-30T00:11:45;16.60;99.90
22161;DHT22;49035;48.812;11.762;2023-07-30T00:14:10;16.60;99.90
22161;DHT22;49035;48.812;11.762;2023-07-30T00:16:36;16.50;99.90
22161;DHT22;49035;48.812;11.762;2023-07-30T00:19:01;16.40;99.90
22161;DHT22;49035;48.812;11.762;2023-07-30T00:21:27;16.30;99.90
22161;DHT22;49035;48.812;11.762;2023-07-30T00:23:53;16.30;99.90
22161;DHT22;49035;48.812;11.762;2023-07-30T00:26:18;16.40;99.90
22161;DHT22;49035;48.812;11.762;2023-07-30T00:28:44;16.30;99.90
22161;DHT22;49035;48.812;11.762;2023-07-30T00:31:09;16.30;99.90
22161;DHT22;49035;48.812;11.762;2023-07-30T00:33:35;16.40;99.90
22161;DHT22;49035;48.812;11.762;2023-07-30T00:36:00;16.50;99.90
22161;DHT22;49035;48.812;11.762;2023-07-30T00:38:26;16.50;99.90
22161;DHT22;49035;48.812;11.762;2023-07-30T00:40:51;16.60;99.90
22161;DHT22;49035;48.812;11.762;2023-07-30T00:43:18;16.60;99.90
22161;DHT22;49035;48.812;11.762;2023-07-30T00:45:44;16.70;99.90
22161;DHT22;49035;48.812;11.762;2023-07-30T00:48:11;16.70;99.90
22161;DHT22;49035;48.812;11.762;2023-07-30T00:50:39;16.70;99.90
22161;DHT22;49035;48.812;11.762;2023-07-30T00:53:06;16.70;99.90
22161;DHT22;49035;48.812;11.762;2023-07-30T00:55:32;16.70;99.90
22161;DHT22;49035;48.812;11.762;2023-07-30T00:57:58;16.80;99.90
22161;DHT22;49035;48.812;11.762;2023-07-30T01:00:24;16.90;99.90
22161;DHT22;49035;48.812;11.762;2023-07-30T01:02:51;16.90;99.90
22161;DHT22;49035;48.812;11.762;2023-07-30T01:05:17;16.90;99.90
22161;DHT22;49035;48.812;11.762;2023-07-30T01:07:43;16.90;99.90
22161;DHT22;49035;48.812;11.762;2023-07-30T01:10:09;17.00;99.90
22161;DHT22;49035;48.812;11.762;2023-07-30T01:12:34;17.00;99.90
22161;DHT22;49035;48.812;11.762;2023-07-30T01:15:01;17.00;99.90
22161;DHT22;49035;48.812;11.762;2023-07-30T01:17:27;17.00;99.90
22161;DHT22;49035;48.812;11.762;2023-07-30T01:19:53;16.90;99.90
22161;DHT22;49035;48.812;11.762;2023-07-30T01:22:22;17.00;99.90
22161;DHT22;49035;48.812;11.762;2023-07-30T01:24:48;17.00;99.90
22161;DHT22;49035;48.812;11.762;2023-07-30T01:27:23;17.00;99.90
22161;DHT22;49035;48.812;11.762;2023-07-30T01:30:21;16.90;99.90
22161;DHT22;49035;48.812;11.762;2023-07-30T01:32:49;16.90;99.90
22161;DHT22;49035;48.812;11.762;2023-07-30T01:35:20;16.90;99.90
22161;DHT22;49035;48.812;11.762;2023-07-30T01:37:47;16.90;99.90
22161;DHT22;49035;48.812;11.762;2023-07-30T01:40:13;16.80;99.90
22161;DHT22;49035;48.812;11.762;2023-07-30T01:42:42;16.90;99.90
22161;DHT22;49035;48.812;11.762;2023-07-30T01:45:08;16.90;99.90
22161;DHT22;49035;48.812;11.762;2023-07-30T01:47:33;16.80;99.90
22161;DHT22;49035;48.812;11.762;2023-07-30T01:49:59;16.80;99.90
22161;DHT22;49035;48.812;11.762;2023-07-30T01:52:25;16.80;99.90
22161;DHT22;49035;48.812;11.762;2023-07-30T01:54:51;16.80;99.90
22161;DHT22;49035;48.812;11.762;2023-07-30T01:57:16;16.80;99.90
22161;DHT22;49035;48.812;11.762;2023-07-30T01:59:42;16.80;99.90
22161;DHT22;49035;48.812;11.762;2023-07-30T02:02:07;16.80;99.90
22161;DHT22;49035;48.812;11.762;2023-07-30T02:04:33;16.90;99.90
22161;DHT22;49035;48.812;11.762;2023-07-30T02:06:59;16.90;99.90
22161;DHT22;49035;48.812;11.762;2023-07-30T02:09:24;16.90;99.90
22161;DHT22;49035;48.812;11.762;2023-07-30T02:11:51;17.00;99.90
22161;DHT22;49035;48.812;11.762;2023-07-30T02:14:18;17.00;99.90
22161;DHT22;49035;48.812;11.762;2023-07-30T02:16:43;16.90;99.90
22161;DHT22;49035;48.812;11.762;2023-07-30T02:19:09;16.80;99.90
22161;DHT22;49035;48.812;11.762;2023-07-30T02:21:35;16.80;99.90
22161;DHT22;49035;48.812;11.762;2023-07-30T02:24:02;16.70;99.90
22161;DHT22;49035;48.812;11.762;2023-07-30T02:26:28;16.60;99.90
22161;DHT22;49035;48.812;11.762;2023-07-30T02:28:53;16.50;99.90
22161;DHT22;49035;48.812;11.762;2023-07-30T02:31:19;16.40;99.90
22161;DHT22;49035;48.812;11.762;2023-07-30T02:33:45;16.40;99.90
22161;DHT22;49035;48.812;11.762;2023-07-30T02:36:10;16.30;99.90
22161;DHT22;49035;48.812;11.762;2023-07-30T02:38:36;16.20;99.90
22161;DHT22;49035;48.812;11.762;2023-07-30T02:41:01;16.20;99.90
22161;DHT22;49035;48.812;11.762;2023-07-30T02:43:27;16.10;99.90
22161;DHT22;49035;48.812;11.762;2023-07-30T02:45:52;16.00;99.90
22161;DHT22;49035;48.812;11.762;2023-07-30T02:48:18;15.90;99.90
22161;DHT22;49035;48.812;11.762;2023-07-30T02:50:43;15.90;99.90
22161;DHT22;49035;48.812;11.762;2023-07-30T02:53:09;15.90;99.90
22161;DHT22;49035;48.812;11.762;2023-07-30T02:55:35;15.80;99.90
22161;DHT22;49035;48.812;11.762;2023-07-30T02:58:00;15.70;99.90
22161;DHT22;49035;48.812;11.762;2023-07-30T03:00:26;15.70;99.90
22161;DHT22;49035;48.812;11.762;2023-07-30T03:02:51;15.60;99.90
22161;DHT22;49035;48.812;11.762;2023-07-30T03:05:17;15.50;99.90
22161;DHT22;49035;48.812;11.762;2023-07-30T03:07:42;15.40;99.90
22161;DHT22;49035;48.812;11.762;2023-07-30T03:10:09;15.20;99.90
22161;DHT22;49035;48.812;11.762;2023-07-30T03:12:34;15.10;99.90
22161;DHT22;49035;48.812;11.762;2023-07-30T03:15:00;15.00;99.90
22161;DHT22;49035;48.812;11.762;2023-07-30T03:17:26;14.80;99.90
22161;DHT22;49035;48.812;11.762;2023-07-30T03:19:51;14.70;99.90
22161;DHT22;49035;48.812;11.762;2023-07-30T03:22:17;14.60;99.90
22161;DHT22;49035;48.812;11.762;2023-07-30T03:24:45;14.50;99.90
22161;DHT22;49035;48.812;11.762;2023-07-30T03:27:11;14.40;99.90
22161;DHT22;49035;48.812;11.762;2023-07-30T03:29:36;14.30;99.90
22161;DHT22;49035;48.812;11.762;2023-07-30T03:32:02;14.30;99.90
22161;DHT22;49035;48.812;11.762;2023-07-30T03:34:28;14.30;99.90
22161;DHT22;49035;48.812;11.762;2023-07-30T03:36:53;14.30;99.90
22161;DHT22;49035;48.812;11.762;2023-07-30T03:39:19;14.20;99.90
22161;DHT22;49035;48.812;11.762;2023-07-30T03:41:44;14.20;99.90
22161;DHT22;49035;48.812;11.762;2023-07-30T03:44:10;14.10;99.90
22161;DHT22;49035;48.812;11.762;2023-07-30T03:46:35;14.00;99.90
22161;DHT22;49035;48.812;11.762;2023-07-30T03:49:01;13.90;99.90
22161;DHT22;49035;48.812;11.762;2023-07-30T03:51:27;13.80;99.90
22161;DHT22;49035;48.812;11.762;2023-07-30T03:53:52;13.80;99.90
22161;DHT22;49035;48.812;11.762;2023-07-30T03:56:18;13.90;99.90
22161;DHT22;49035;48.812;11.762;2023-07-30T03:58:44;13.90;99.90
22161;DHT22;49035;48.812;11.762;2023-07-30T04:01:09;13.90;99.90
22161;DHT22;49035;48.812;11.762;2023-07-30T04:03:35;14.00;99.90
22161;DHT22;49035;48.812;11.762;2023-07-30T04:06:00;14.00;99.90
22161;DHT22;49035;48.812;11.762;2023-07-30T04:08:26;14.00;99.90
22161;DHT22;49035;48.812;11.762;2023-07-30T04:10:51;14.00;99.90
22161;DHT22;49035;48.812;11.762;2023-07-30T04:13:17;14.00;99.90
22161;DHT22;49035;48.812;11.762;2023-07-30T04:15:43;13.90;99.90
22161;DHT22;49035;48.812;11.762;2023-07-30T04:18:08;13.90;99.90
22161;DHT22;49035;48.812;11.762;2023-07-30T04:20:34;14.00;99.90
22161;DHT22;49035;48.812;11.762;2023-07-30T04:22:59;14.20;99.90
22161;DHT22;49035;48.812;11.762;2023-07-30T04:25:25;14.20;99.90
22161;DHT22;49035;48.812;11.762;2023-07-30T04:27:51;14.30;99.90
22161;DHT22;49035;48.812;11.762;2023-07-30T04:30:16;14.40;99.90
22161;DHT22;49035;48.812;11.762;2023-07-30T04:32:42;14.50;99.90
22161;DHT22;49035;48.812;11.762;2023-07-30T04:35:08;14.70;99.90
22161;DHT22;49035;48.812;11.762;2023-07-30T04:37:33;15.00;99.90
22161;DHT22;49035;48.812;11.762;2023-07-30T04:39:59;15.40;99.90
22161;DHT22;49035;48.812;11.762;2023-07-30T04:42:24;15.70;99.90
22161;DHT22;49035;48.812;11.762;2023-07-30T04:44:50;15.80;99.90
22161;DHT22;49035;48.812;11.762;2023-07-30T04:47:15;15.90;99.90
22161;DHT22;49035;48.812;11.762;2023-07-30T04:49:41;15.90;99.90
22161;DHT22;49035;48.812;11.762;2023-07-30T04:52:07;16.00;99.90
22161;DHT22;49035;48.812;11.762;2023-07-30T04:54:33;16.10;99.90
22161;DHT22;49035;48.812;11.762;2023-07-30T04:57:01;16.10;99.90
22161;DHT22;49035;48.812;11.762;2023-07-30T04:59:27;16.20;99.90
22161;DHT22;49035;48.812;11.762;2023-07-30T05:01:52;16.20;99.90
22161;DHT22;49035;48.812;11.762;2023-07-30T05:04:18;16.30;99.90
22161;DHT22;49035;48.812;11.762;2023-07-30T05:06:43;16.50;99.90
22161;DHT22;49035;48.812;11.762;2023-07-30T05:09:09;16.60;99.90
22161;DHT22;49035;48.812;11.762;2023-07-30T05:11:37;16.50;99.90
22161;DHT22;49035;48.812;11.762;2023-07-30T05:14:02;16.50;99.90
22161;DHT22;49035;48.812;11.762;2023-07-30T05:16:28;16.40;99.90
22161;DHT22;49035;48.812;11.762;2023-07-30T05:18:54;16.40;99.90
22161;DHT22;49035;48.812;11.762;2023-07-30T05:21:19;16.70;99.90
22161;DHT22;49035;48.812;11.762;2023-07-30T05:23:45;16.90;99.90
22161;DHT22;49035;48.812;11.762;2023-07-30T05:26:10;17.00;99.90
22161;DHT22;49035;48.812;11.762;2023-07-30T05:28:36;17.00;99.90
22161;DHT22;49035;48.812;11.762;2023-07-30T05:31:01;16.90;99.90
22161;DHT22;49035;48.812;11.762;2023-07-30T05:33:27;16.90;99.90
22161;DHT22;49035;48.812;11.762;2023-07-30T05:35:52;16.90;99.90
22161;DHT22;49035;48.812;11.762;2023-07-30T05:38:18;17.00;99.90
22161;DHT22;49035;48.812;11.762;2023-07-30T05:40:43;17.30;99.90
22161;DHT22;49035;48.812;11.762;2023-07-30T05:43:09;17.60;99.90
22161;DHT22;49035;48.812;11.762;2023-07-30T05:45:35;17.80;99.90
22161;DHT22;49035;48.812;11.762;2023-07-30T05:48:00;18.00;99.90
22161;DHT22;49035;48.812;11.762;2023-07-30T05:50:26;18.20;99.90
22161;DHT22;49035;48.812;11.762;2023-07-30T05:52:51;18.40;99.90
22161;DHT22;49035;48.812;11.762;2023-07-30T05:55:17;18.30;99.90
22161;DHT22;49035;48.812;11.762;2023-07-30T05:57:43;18.40;99.90
22161;DHT22;49035;48.812;11.762;2023-07-30T06:00:09;18.30;99.90
22161;DHT22;49035;48.812;11.762;2023-07-30T06:02:34;18.10;99.90
22161;DHT22;49035;48.812;11.762;2023-07-30T06:05:00;18.20;99.90
22161;DHT22;49035;48.812;11.762;2023-07-30T06:07:25;18.30;99.90
22161;DHT22;49035;48.812;11.762;2023-07-30T06:09:51;18.30;99.90
22161;DHT22;49035;48.812;11.762;2023-07-30T06:12:16;18.30;99.90
22161;DHT22;49035;48.812;11.762;2023-07-30T06:14:42;18.50;99.90
22161;DHT22;49035;48.812;11.762;2023-07-30T06:17:08;18.70;99.90
22161;DHT22;49035;48.812;11.762;2023-07-30T06:19:33;18.90;99.90
22161;DHT22;49035;48.812;11.762;2023-07-30T06:21:59;19.10;99.90
22161;DHT22;49035;48.812;11.762;2023-07-30T06:24:25;19.40;99.90
22161;DHT22;49035;48.812;11.762;2023-07-30T06:26:51;19.50;99.90
22161;DHT22;49035;48.812;11.762;2023-07-30T06:29:17;19.70;99.90
22161;DHT22;49035;48.812;11.762;2023-07-30T06:31:42;19.90;99.90
22161;DHT22;49035;48.812;11.762;2023-07-30T06:34:08;20.10;99.90
22161;DHT22;49035;48.812;11.762;2023-07-30T06:36:33;20.70;99.90
22161;DHT22;49035;48.812;11.762;2023-07-30T06:38:59;21.10;99.90
22161;DHT22;49035;48.812;11.762;2023-07-30T06:41:24;22.00;99.90
22161;DHT22;49035;48.812;11.762;2023-07-30T06:43:50;22.50;99.90
22161;DHT22;49035;48.812;11.762;2023-07-30T06:46:16;22.70;99.90
22161;DHT22;49035;48.812;11.762;2023-07-30T06:48:41;22.60;99.90
22161;DHT22;49035;48.812;11.762;2023-07-30T06:51:09;22.70;99.90
22161;DHT22;49035;48.812;11.762;2023-07-30T06:53:35;22.50;99.90
22161;DHT22;49035;48.812;11.762;2023-07-30T06:56:00;22.40;99.90
22161;DHT22;49035;48.812;11.762;2023-07-30T06:58:26;21.90;99.90
22161;DHT22;49035;48.812;11.762;2023-07-30T07:00:51;21.40;99.90
22161;DHT22;49035;48.812;11.762;2023-07-30T07:03:17;21.00;99.90
22161;DHT22;49035;48.812;11.762;2023-07-30T07:05:43;20.60;99.90
22161;DHT22;49035;48.812;11.762;2023-07-30T07:08:08;20.30;99.90
22161;DHT22;49035;48.812;11.762;2023-07-30T07:10:34;20.20;99.90
22161;DHT22;49035;48.812;11.762;2023-07-30T07:13:00;20.20;99.90
22161;DHT22;49035;48.812;11.762;2023-07-30T07:15:25;20.40;99.90
22161;DHT22;49035;48.812;11.762;2023-07-30T07:17:51;21.00;99.90
22161;DHT22;49035;48.812;11.762;2023-07-30T07:20:16;21.60;99.90
22161;DHT22;49035;48.812;11.762;2023-07-30T07:22:43;21.80;99.90
22161;DHT22;49035;48.812;11.762;2023-07-30T07:25:09;22.70;99.90
22161;DHT22;49035;48.812;11.762;2023-07-30T07:27:34;24.00;99.90
22161;DHT22;49035;48.812;11.762;2023-07-30T07:30:00;24.70;99.90
22161;DHT22;49035;48.812;11.762;2023-07-30T07:32:25;24.70;99.90
22161;DHT22;49035;48.812;11.762;2023-07-30T07:34:51;24.70;99.90
22161;DHT22;49035;48.812;11.762;2023-07-30T07:37:17;24.60;99.90
22161;DHT22;49035;48.812;11.762;2023-07-30T07:39:46;23.90;99.90
22161;DHT22;49035;48.812;11.762;2023-07-30T07:42:12;24.10;99.90
22161;DHT22;49035;48.812;11.762;2023-07-30T07:44:38;24.70;99.90
22161;DHT22;49035;48.812;11.762;2023-07-30T07:47:04;25.30;99.90
22161;DHT22;49035;48.812;11.762;2023-07-30T07:49:29;25.40;99.90
22161;DHT22;49035;48.812;11.762;2023-07-30T07:51:55;24.70;99.90
22161;DHT22;49035;48.812;11.762;2023-07-30T07:54:20;24.30;99.90
22161;DHT22;49035;48.812;11.762;2023-07-30T07:56:46;23.80;99.90
22161;DHT22;49035;48.812;11.762;2023-07-30T07:59:12;23.50;99.90
22161;DHT22;49035;48.812;11.762;2023-07-30T08:01:37;23.10;99.90
22161;DHT22;49035;48.812;11.762;2023-07-30T08:04:03;22.90;99.90
22161;DHT22;49035;48.812;11.762;2023-07-30T08:06:28;23.30;99.90
22161;DHT22;49035;48.812;11.762;2023-07-30T08:08:55;24.00;99.90
22161;DHT22;49035;48.812;11.762;2023-07-30T08:11:20;24.50;99.90
22161;DHT22;49035;48.812;11.762;2023-07-30T08:13:46;24.10;99.90
22161;DHT22;49035;48.812;11.762;2023-07-30T08:16:12;24.40;99.90
22161;DHT22;49035;48.812;11.762;2023-07-30T08:18:37;24.50;99.90
22161;DHT22;49035;48.812;11.762;2023-07-30T08:21:03;25.00;99.90
22161;DHT22;49035;48.812;11.762;2023-07-30T08:23:28;25.70;99.90
22161;DHT22;49035;48.812;11.762;2023-07-30T08:25:54;26.60;99.90
22161;DHT22;49035;48.812;11.762;2023-07-30T08:28:20;26.90;99.90
22161;DHT22;49035;48.812;11.762;2023-07-30T08:30:45;26.90;99.90
22161;DHT22;49035;48.812;11.762;2023-07-30T08:33:11;27.40;99.90
22161;DHT22;49035;48.812;11.762;2023-07-30T08:35:37;27.30;99.90
22161;DHT22;49035;48.812;11.762;2023-07-30T08:38:02;27.50;95.50
22161;DHT22;49035;48.812;11.762;2023-07-30T08:40:28;27.60;99.10
22161;DHT22;49035;48.812;11.762;2023-07-30T08:42:54;28.30;98.80
22161;DHT22;49035;48.812;11.762;2023-07-30T08:45:20;28.40;96.00
22161;DHT22;49035;48.812;11.762;2023-07-30T08:47:46;28.50;92.40
22161;DHT22;49035;48.812;11.762;2023-07-30T08:50:12;28.20;93.00
22161;DHT22;49035;48.812;11.762;2023-07-30T08:52:38;27.80;94.40
22161;DHT22;49035;48.812;11.762;2023-07-30T08:55:05;27.20;93.90
22161;DHT22;49035;48.812;11.762;2023-07-30T08:57:32;26.50;94.60
22161;DHT22;49035;48.812;11.762;2023-07-30T09:00:06;26.00;96.00
22161;DHT22;49035;48.812;11.762;2023-07-30T09:02:54;25.60;97.00
22161;DHT22;49035;48.812;11.762;2023-07-30T09:05:21;25.00;98.60
22161;DHT22;49035;48.812;11.762;2023-07-30T09:07:48;24.40;99.90
22161;DHT22;49035;48.812;11.762;2023-07-30T09:10:14;23.20;99.90
22161;DHT22;49035;48.812;11.762;2023-07-30T09:12:40;22.50;99.90
22161;DHT22;49035;48.812;11.762;2023-07-30T09:15:07;21.90;99.90
22161;DHT22;49035;48.812;11.762;2023-07-30T09:17:33;21.70;99.90
22161;DHT22;49035;48.812;11.762;2023-07-30T09:20:00;21.90;99.90
22161;DHT22;49035;48.812;11.762;2023-07-30T09:22:27;22.30;99.90
22161;DHT22;49035;48.812;11.762;2023-07-30T09:24:57;22.30;99.90
22161;DHT22;49035;48.812;11.762;2023-07-30T09:27:25;22.50;99.90
22161;DHT22;49035;48.812;11.762;2023-07-30T09:29:55;22.80;99.90
22161;DHT22;49035;48.812;11.762;2023-07-30T09:32:26;22.90;99.90
22161;DHT22;49035;48.812;11.762;2023-07-30T09:34:52;23.00;99.90
22161;DHT22;49035;48.812;11.762;2023-07-30T09:37:17;23.10;99.90
22161;DHT22;49035;48.812;11.762;2023-07-30T09:39:43;23.10;99.90
22161;DHT22;49035;48.812;11.762;2023-07-30T09:42:09;23.50;99.90
22161;DHT22;49035;48.812;11.762;2023-07-30T09:44:37;24.20;99.90
22161;DHT22;49035;48.812;11.762;2023-07-30T09:47:04;24.90;99.90
22161;DHT22;49035;48.812;11.762;2023-07-30T09:49:31;25.30;99.90
22161;DHT22;49035;48.812;11.762;2023-07-30T09:51:57;25.40;99.90
22161;DHT22;49035;48.812;11.762;2023-07-30T09:54:23;25.10;99.90
22161;DHT22;49035;48.812;11.762;2023-07-30T09:56:49;24.40;99.90
22161;DHT22;49035;48.812;11.762;2023-07-30T09:59:15;23.50;99.90
22161;DHT22;49035;48.812;11.762;2023-07-30T10:01:48;23.20;99.90
22161;DHT22;49035;48.812;11.762;2023-07-30T10:04:20;22.70;99.90
22161;DHT22;49035;48.812;11.762;2023-07-30T10:06:53;22.60;99.90
22161;DHT22;49035;48.812;11.762;2023-07-30T10:09:21;23.10;99.90
22161;DHT22;49035;48.812;11.762;2023-07-30T10:11:50;24.00;99.90
22161;DHT22;49035;48.812;11.762;2023-07-30T10:14:17;24.60;99.90
22161;DHT22;49035;48.812;11.762;2023-07-30T10:16:52;24.70;99.90
22161;DHT22;49035;48.812;11.762;2023-07-30T10:19:25;24.50;99.90
22161;DHT22;49035;48.812;11.762;2023-07-30T10:21:53;23.90;99.90
22161;DHT22;49035;48.812;11.762;2023-07-30T10:24:19;23.80;99.90
22161;DHT22;49035;48.812;11.762;2023-07-30T10:26:44;23.80;99.90
22161;DHT22;49035;48.812;11.762;2023-07-30T10:29:18;23.50;99.90
22161;DHT22;49035;48.812;11.762;2023-07-30T10:31:55;23.20;99.90
22161;DHT22;49035;48.812;11.762;2023-07-30T10:34:21;23.30;99.90
22161;DHT22;49035;48.812;11.762;2023-07-30T10:36:49;23.20;99.90
22161;DHT22;49035;48.812;11.762;2023-07-30T10:39:20;23.40;99.90
22161;DHT22;49035;48.812;11.762;2023-07-30T10:41:50;23.50;99.90
22161;DHT22;49035;48.812;11.762;2023-07-30T10:44:32;23.60;99.90
22161;DHT22;49035;48.812;11.762;2023-07-30T10:47:00;23.80;99.90
22161;DHT22;49035;48.812;11.762;2023-07-30T10:49:26;23.50;99.90
22161;DHT22;49035;48.812;11.762;2023-07-30T10:51:53;23.80;99.90
22161;DHT22;49035;48.812;11.762;2023-07-30T10:54:19;23.80;99.90
22161;DHT22;49035;48.812;11.762;2023-07-30T10:56:45;23.70;99.90
22161;DHT22;49035;48.812;11.762;2023-07-30T10:59:12;23.60;99.90
22161;DHT22;49035;48.812;11.762;2023-07-30T11:01:42;23.80;99.90
22161;DHT22;49035;48.812;11.762;2023-07-30T11:04:14;23.70;99.90
22161;DHT22;49035;48.812;11.762;2023-07-30T11:06:45;23.50;99.90
22161;DHT22;49035;48.812;11.762;2023-07-30T11:11:45;22.80;99.90
22161;DHT22;49035;48.812;11.762;2023-07-30T11:14:18;22.50;99.90
22161;DHT22;49035;48.812;11.762;2023-07-30T11:16:50;22.40;99.90
22161;DHT22;49035;48.812;11.762;2023-07-30T11:19:16;22.60;99.90
22161;DHT22;49035;48.812;11.762;2023-07-30T11:21:49;22.50;99.90
22161;DHT22;49035;48.812;11.762;2023-07-30T11:24:15;22.50;99.90
22161;DHT22;49035;48.812;11.762;2023-07-30T11:26:41;22.70;99.90
22161;DHT22;49035;48.812;11.762;2023-07-30T11:29:19;22.90;99.90
22161;DHT22;49035;48.812;11.762;2023-07-30T11:31:47;23.30;99.90
22161;DHT22;49035;48.812;11.762;2023-07-30T11:34:15;23.40;99.90
22161;DHT22;49035;48.812;11.762;2023-07-30T11:36:43;23.60;99.90
22161;DHT22;49035;48.812;11.762;2023-07-30T11:39:10;23.50;99.90
22161;DHT22;49035;48.812;11.762;2023-07-30T11:41:36;23.20;99.90
22161;DHT22;49035;48.812;11.762;2023-07-30T11:44:02;22.70;99.90
22161;DHT22;49035;48.812;11.762;2023-07-30T11:46:28;22.90;99.90
22161;DHT22;49035;48.812;11.762;2023-07-30T11:49:12;24.00;99.90
22161;DHT22;49035;48.812;11.762;2023-07-30T11:51:38;25.00;99.90
22161;DHT22;49035;48.812;11.762;2023-07-30T11:54:03;25.60;99.90
22161;DHT22;49035;48.812;11.762;2023-07-30T11:56:33;25.40;99.90
22161;DHT22;49035;48.812;11.762;2023-07-30T11:59:06;25.60;99.90
22161;DHT22;49035;48.812;11.762;2023-07-30T12:01:33;25.80;98.90
22161;DHT22;49035;48.812;11.762;2023-07-30T12:04:01;25.90;97.30
22161;DHT22;49035;48.812;11.762;2023-07-30T12:06:43;25.30;96.80
22161;DHT22;49035;48.812;11.762;2023-07-30T12:09:17;24.70;98.90
22161;DHT22;49035;48.812;11.762;2023-07-30T12:11:48;24.30;97.90
22161;DHT22;49035;48.812;11.762;2023-07-30T12:14:15;23.90;98.10
22161;DHT22;49035;48.812;11.762;2023-07-30T12:16:41;23.90;98.90
22161;DHT22;49035;48.812;11.762;2023-07-30T12:19:06;24.40;99.40
22161;DHT22;49035;48.812;11.762;2023-07-30T12:21:32;25.10;99.90
22161;DHT22;49035;48.812;11.762;2023-07-30T12:23:58;25.90;94.20
22161;DHT22;49035;48.812;11.762;2023-07-30T12:26:23;25.30;94.80
22161;DHT22;49035;48.812;11.762;2023-07-30T12:28:49;24.80;96.60
22161;DHT22;49035;48.812;11.762;2023-07-30T12:31:15;25.10;93.80
22161;DHT22;49035;48.812;11.762;2023-07-30T12:33:40;25.50;97.10
22161;DHT22;49035;48.812;11.762;2023-07-30T12:36:06;26.50;93.80
22161;DHT22;49035;48.812;11.762;2023-07-30T12:38:31;26.40;89.20
22161;DHT22;49035;48.812;11.762;2023-07-30T12:40:57;25.90;88.60
22161;DHT22;49035;48.812;11.762;2023-07-30T12:43:23;25.30;90.60
22161;DHT22;49035;48.812;11.762;2023-07-30T12:45:48;25.30;92.80
22161;DHT22;49035;48.812;11.762;2023-07-30T12:48:14;25.50;90.50
22161;DHT22;49035;48.812;11.762;2023-07-30T12:50:40;25.70;92.80
22161;DHT22;49035;48.812;11.762;2023-07-30T12:53:05;26.00;90.10
22161;DHT22;49035;48.812;11.762;2023-07-30T12:55:31;26.30;88.80
22161;DHT22;49035;48.812;11.762;2023-07-30T12:57:57;26.00;87.10
22161;DHT22;49035;48.812;11.762;2023-07-30T13:00:22;25.30;92.00
22161;DHT22;49035;48.812;11.762;2023-07-30T13:02:48;24.90;90.80
22161;DHT22;49035;48.812;11.762;2023-07-30T13:05:13;24.00;91.40
22161;DHT22;49035;48.812;11.762;2023-07-30T13:07:41;23.60;90.70
22161;DHT22;49035;48.812;11.762;2023-07-30T13:10:08;23.60;91.70
22161;DHT22;49035;48.812;11.762;2023-07-30T13:12:34;24.00;91.20
22161;DHT22;49035;48.812;11.762;2023-07-30T13:15:00;24.20;91.40
22161;DHT22;49035;48.812;11.762;2023-07-30T13:17:26;24.20;89.90
22161;DHT22;49035;48.812;11.762;2023-07-30T13:19:52;23.90;90.00
22161;DHT22;49035;48.812;11.762;2023-07-30T13:22:18;23.70;90.00
22161;DHT22;49035;48.812;11.762;2023-07-30T13:24:43;23.30;91.10
22161;DHT22;49035;48.812;11.762;2023-07-30T13:27:09;23.70;90.30
22161;DHT22;49035;48.812;11.762;2023-07-30T13:29:36;24.40;88.90
22161;DHT22;49035;48.812;11.762;2023-07-30T13:32:01;25.30;83.40
22161;DHT22;49035;48.812;11.762;2023-07-30T13:34:27;25.70;84.00
22161;DHT22;49035;48.812;11.762;2023-07-30T13:36:52;25.40;80.20
22161;DHT22;49035;48.812;11.762;2023-07-30T13:39:18;25.10;81.40
22161;DHT22;49035;48.812;11.762;2023-07-30T13:41:44;24.40;78.30
22161;DHT22;49035;48.812;11.762;2023-07-30T13:44:09;24.40;86.60
22161;DHT22;49035;48.812;11.762;2023-07-30T13:46:37;24.70;84.10
22161;DHT22;49035;48.812;11.762;2023-07-30T13:49:02;24.70;85.40
22161;DHT22;49035;48.812;11.762;2023-07-30T13:51:28;25.40;86.90
22161;DHT22;49035;48.812;11.762;2023-07-30T13:53:58;25.60;79.50
22161;DHT22;49035;48.812;11.762;2023-07-30T13:56:25;25.50;81.70
22161;DHT22;49035;48.812;11.762;2023-07-30T13:58:50;25.70;79.70
22161;DHT22;49035;48.812;11.762;2023-07-30T14:01:16;25.50;75.90
22161;DHT22;49035;48.812;11.762;2023-07-30T14:03:43;24.80;79.30
22161;DHT22;49035;48.812;11.762;2023-07-30T14:06:09;24.70;82.30
22161;DHT22;49035;48.812;11.762;2023-07-30T14:08:35;24.20;82.90
22161;DHT22;49035;48.812;11.762;2023-07-30T14:11:00;24.30;83.50
22161;DHT22;49035;48.812;11.762;2023-07-30T14:13:26;24.20;84.80
22161;DHT22;49035;48.812;11.762;2023-07-30T14:15:52;23.90;86.40
22161;DHT22;49035;48.812;11.762;2023-07-30T14:18:17;24.40;83.60
22161;DHT22;49035;48.812;11.762;2023-07-30T14:20:43;24.60;86.30
22161;DHT22;49035;48.812;11.762;2023-07-30T14:23:08;25.10;81.70
22161;DHT22;49035;48.812;11.762;2023-07-30T14:25:35;25.50;79.70
22161;DHT22;49035;48.812;11.762;2023-07-30T14:28:01;25.40;83.50
22161;DHT22;49035;48.812;11.762;2023-07-30T14:30:26;26.30;78.50
22161;DHT22;49035;48.812;11.762;2023-07-30T14:32:52;26.40;76.00
22161;DHT22;49035;48.812;11.762;2023-07-30T14:35:17;25.80;75.60
22161;DHT22;49035;48.812;11.762;2023-07-30T14:37:43;25.20;77.00
22161;DHT22;49035;48.812;11.762;2023-07-30T14:40:09;24.60;76.00
22161;DHT22;49035;48.812;11.762;2023-07-30T14:42:35;24.50;77.60
22161;DHT22;49035;48.812;11.762;2023-07-30T14:45:00;24.60;77.10
22161;DHT22;49035;48.812;11.762;2023-07-30T14:47:26;25.30;77.50
22161;DHT22;49035;48.812;11.762;2023-07-30T14:49:52;25.60;75.30
22161;DHT22;49035;48.812;11.762;2023-07-30T14:52:17;25.50;76.40
22161;DHT22;49035;48.812;11.762;2023-07-30T14:54:44;25.80;74.20
22161;DHT22;49035;48.812;11.762;2023-07-30T14:57:10;25.90;75.70
22161;DHT22;49035;48.812;11.762;2023-07-30T14:59:35;26.40;73.00
22161;DHT22;49035;48.812;11.762;2023-07-30T15:02:01;25.90;71.50
22161;DHT22;49035;48.812;11.762;2023-07-30T15:04:26;25.10;76.60
22161;DHT22;49035;48.812;11.762;2023-07-30T15:06:52;24.20;77.60
22161;DHT22;49035;48.812;11.762;2023-07-30T15:09:18;23.80;79.30
22161;DHT22;49035;48.812;11.762;2023-07-30T15:11:43;23.40;80.40
22161;DHT22;49035;48.812;11.762;2023-07-30T15:14:09;23.50;79.40